createdAt,value
2023-01-08T00:01:19.306Z,4.53
2023-01-08T00:03:48.002Z,3.38
2023-01-08T00:06:18.334Z,3.13
2023-01-08T00:08:49.142Z,3.30
2023-01-08T00:11:17.602Z,4.40
2023-01-08T00:13:45.829Z,3.58
2023-01-08T00:16:18.879Z,4.05
2023-01-08T00:18:48.080Z,4.63
2023-01-08T00:21:16.221Z,3.97
2023-01-08T00:23:44.364Z,3.13
2023-01-08T00:26:12.996Z,3.88
2023-01-08T00:28:41.494Z,3.20
2023-01-08T00:31:12.555Z,3.92
2023-01-08T00:33:42.722Z,3.65
2023-01-08T00:36:13.397Z,3.88
2023-01-08T00:38:42.037Z,2.80
2023-01-08T00:41:10.580Z,3.83
2023-01-08T00:43:38.896Z,3.00
2023-01-08T00:46:07.700Z,2.90
2023-01-08T00:48:39.047Z,3.55
2023-01-08T00:51:09.807Z,3.53
2023-01-08T00:53:39.140Z,3.10
2023-01-08T00:56:09.833Z,3.22
2023-01-08T00:58:38.357Z,4.13
2023-01-08T01:01:11.771Z,3.60
2023-01-08T01:03:40.210Z,3.38
2023-01-08T01:06:10.341Z,3.65
2023-01-08T01:08:38.467Z,4.30
2023-01-08T01:11:10.837Z,4.05
2023-01-08T01:13:39.023Z,3.40
2023-01-08T01:16:07.639Z,2.92
2023-01-08T01:18:36.093Z,3.58
2023-01-08T01:21:04.444Z,3.00
2023-01-08T01:23:34.463Z,3.42
2023-01-08T01:26:02.627Z,4.15
2023-01-08T01:28:30.666Z,3.25
2023-01-08T01:30:59.274Z,3.90
2023-01-08T01:33:27.460Z,2.55
2023-01-08T01:36:02.660Z,4.45
2023-01-08T01:38:31.252Z,3.00
2023-01-08T01:41:01.272Z,3.28
2023-01-08T01:43:37.799Z,3.35
2023-01-08T01:46:17.897Z,3.30
2023-01-08T01:48:47.498Z,4.10
2023-01-08T01:51:15.905Z,3.35
2023-01-08T01:53:44.074Z,3.35
2023-01-08T01:56:13.991Z,3.25
2023-01-08T01:58:42.222Z,4.22
2023-01-08T02:01:11.845Z,4.20
2023-01-08T02:03:41.391Z,4.72
2023-01-08T02:06:20.745Z,3.67
2023-01-08T02:09:01.907Z,3.78
2023-01-08T02:11:40.865Z,3.80
2023-01-08T02:14:17.687Z,3.95
2023-01-08T02:16:51.853Z,5.22
2023-01-08T02:19:37.713Z,3.60
2023-01-08T02:22:21.306Z,5.05
2023-01-08T02:24:57.380Z,5.45
2023-01-08T02:27:30.965Z,3.78
2023-01-08T02:29:59.750Z,4.00
2023-01-08T02:32:28.569Z,3.65
2023-01-08T02:34:56.990Z,4.75
2023-01-08T02:37:25.259Z,5.65
2023-01-08T02:40:07.515Z,3.40
2023-01-08T02:42:46.975Z,3.20
2023-01-08T02:45:27.462Z,5.78
2023-01-08T02:48:00.050Z,5.78
2023-01-08T02:50:34.405Z,4.95
2023-01-08T02:53:08.293Z,4.05
2023-01-08T02:55:39.098Z,3.55
2023-01-08T02:58:09.073Z,4.45
2023-01-08T03:00:38.375Z,4.97
2023-01-08T03:03:11.964Z,4.60
2023-01-08T03:05:43.076Z,4.55
2023-01-08T03:08:13.136Z,4.65
2023-01-08T03:10:46.665Z,4.15
2023-01-08T03:13:22.759Z,4.55
2023-01-08T03:15:56.348Z,4.10
2023-01-08T03:18:30.986Z,4.57
2023-01-08T03:20:59.811Z,4.65
2023-01-08T03:23:29.298Z,3.38
2023-01-08T03:26:00.292Z,4.70
2023-01-08T03:28:34.837Z,3.60
2023-01-08T03:31:03.912Z,4.35
2023-01-08T03:33:33.401Z,4.05
2023-01-08T03:36:05.037Z,5.53
2023-01-08T03:38:38.304Z,5.05
2023-01-08T03:41:11.832Z,4.90
2023-01-08T03:43:41.690Z,4.95
2023-01-08T03:46:15.687Z,5.55
2023-01-08T03:48:44.676Z,4.57
2023-01-08T03:51:13.263Z,5.70
2023-01-08T03:53:41.588Z,4.00
2023-01-08T03:56:09.885Z,3.67
2023-01-08T03:58:38.116Z,3.58
2023-01-08T04:01:08.075Z,4.10
2023-01-08T04:03:36.487Z,3.80
2023-01-08T04:06:04.851Z,3.85
2023-01-08T04:08:32.955Z,4.47
2023-01-08T04:11:01.371Z,2.72
2023-01-08T04:13:29.483Z,4.32
2023-01-08T04:15:58.344Z,3.50
2023-01-08T04:18:28.117Z,4.03
2023-01-08T04:20:56.538Z,4.85
2023-01-08T04:23:24.694Z,4.03
2023-01-08T04:25:53.092Z,4.72
2023-01-08T04:28:21.974Z,4.93
2023-01-08T04:30:50.250Z,4.03
2023-01-08T04:33:18.910Z,4.47
2023-01-08T04:35:48.363Z,3.70
2023-01-08T04:38:16.477Z,5.30
2023-01-08T04:40:44.700Z,5.20
2023-01-08T04:43:12.924Z,4.05
2023-01-08T04:45:40.977Z,4.45
2023-01-08T04:48:09.253Z,4.65
2023-01-08T04:50:37.517Z,3.85
2023-01-08T04:53:07.031Z,5.78
2023-01-08T04:55:35.561Z,4.50
2023-01-08T04:58:03.853Z,4.32
2023-01-08T05:00:32.545Z,5.28
2023-01-08T05:03:00.760Z,3.22
2023-01-08T05:05:29.015Z,6.00
2023-01-08T05:07:57.078Z,3.65
2023-01-08T05:10:26.908Z,5.63
2023-01-08T05:12:59.804Z,3.70
2023-01-08T05:15:28.460Z,4.35
2023-01-08T05:18:00.733Z,5.28
2023-01-08T05:20:29.668Z,5.07
2023-01-08T05:22:58.622Z,4.97
2023-01-08T05:25:28.255Z,4.63
2023-01-08T05:27:56.709Z,4.60
2023-01-08T05:30:24.868Z,4.95
2023-01-08T05:32:53.141Z,4.85
2023-01-08T05:35:21.244Z,4.68
2023-01-08T05:37:49.533Z,4.88
2023-01-08T05:40:17.689Z,5.00
2023-01-08T05:42:47.307Z,5.70
2023-01-08T05:45:15.836Z,5.95
2023-01-08T05:47:44.129Z,3.97
2023-01-08T05:50:12.385Z,4.50
2023-01-08T05:52:40.727Z,4.72
2023-01-08T05:55:09.449Z,4.95
2023-01-08T05:57:37.962Z,5.65
2023-01-08T06:00:09.888Z,4.00
2023-01-08T06:02:38.339Z,4.72
2023-01-08T06:05:07.201Z,5.30
2023-01-08T06:07:35.481Z,5.13
2023-01-08T06:10:03.629Z,2.97
2023-01-08T06:12:31.889Z,3.58
2023-01-08T06:15:00.002Z,4.07
2023-01-08T06:17:29.531Z,4.30
2023-01-08T06:19:57.769Z,3.00
2023-01-08T06:22:26.031Z,2.80
2023-01-08T06:24:54.212Z,3.25
2023-01-08T06:27:22.296Z,3.35
2023-01-08T06:29:50.377Z,3.38
2023-01-08T06:32:18.456Z,2.92
2023-01-08T06:34:48.035Z,2.72
2023-01-08T06:37:16.644Z,2.78
2023-01-08T06:39:44.748Z,2.35
2023-01-08T06:42:12.915Z,2.67
2023-01-08T06:44:41.089Z,3.22
2023-01-08T06:47:09.214Z,2.22
2023-01-08T06:49:37.383Z,2.10
2023-01-08T06:52:06.969Z,2.28
2023-01-08T06:54:35.184Z,2.15
2023-01-08T06:57:03.333Z,3.92
2023-01-08T06:59:31.616Z,3.15
2023-01-08T07:02:00.102Z,4.05
2023-01-08T07:04:28.255Z,3.22
2023-01-08T07:06:56.333Z,2.90
2023-01-08T07:09:25.865Z,2.75
2023-01-08T07:11:54.077Z,1.92
2023-01-08T07:14:22.368Z,3.38
2023-01-08T07:16:50.459Z,2.83
2023-01-08T07:19:18.830Z,2.00
2023-01-08T07:21:46.900Z,1.80
2023-01-08T07:24:15.086Z,3.45
2023-01-08T07:26:44.548Z,2.90
2023-01-08T07:29:13.041Z,2.25
2023-01-08T07:31:41.219Z,2.00
2023-01-08T07:34:09.405Z,2.20
2023-01-08T07:36:37.675Z,2.42
2023-01-08T07:39:06.007Z,3.35
2023-01-08T07:41:34.285Z,2.72
2023-01-08T07:44:03.777Z,3.55
2023-01-08T07:46:31.968Z,2.72
2023-01-08T07:49:00.237Z,2.28
2023-01-08T07:51:29.865Z,1.70
2023-01-08T07:53:58.026Z,2.30
2023-01-08T07:56:26.376Z,2.42
2023-01-08T07:58:54.771Z,2.05
2023-01-08T08:01:26.375Z,1.48
2023-01-08T08:03:54.591Z,1.73
2023-01-08T08:06:22.665Z,1.83
2023-01-08T08:08:50.746Z,2.00
2023-01-08T08:11:18.821Z,2.00
2023-01-08T08:13:47.583Z,1.65
2023-01-08T08:16:15.690Z,2.10
2023-01-08T08:18:45.332Z,1.25
2023-01-08T08:21:13.532Z,2.03
2023-01-08T08:23:41.642Z,1.65
2023-01-08T08:26:09.837Z,1.83
2023-01-08T08:28:37.972Z,2.00
2023-01-08T08:31:06.412Z,1.27
2023-01-08T08:33:34.704Z,1.70
2023-01-08T08:36:04.233Z,3.50
2023-01-08T08:38:32.767Z,1.45
2023-01-08T08:41:01.470Z,2.20
2023-01-08T08:43:30.071Z,2.25
2023-01-08T08:45:58.407Z,1.60
2023-01-08T08:48:27.435Z,1.90
2023-01-08T08:50:55.666Z,1.42
2023-01-08T08:53:27.571Z,1.38
2023-01-08T08:55:55.885Z,1.52
2023-01-08T08:58:24.052Z,1.33
2023-01-08T09:00:52.242Z,1.27
2023-01-08T09:03:20.348Z,1.23
2023-01-08T09:05:48.491Z,1.20
2023-01-08T09:08:16.624Z,1.48
2023-01-08T09:10:46.147Z,1.30
2023-01-08T09:13:14.257Z,1.38
2023-01-08T09:15:42.300Z,1.33
2023-01-08T09:18:10.420Z,1.65
2023-01-08T09:20:38.925Z,1.70
2023-01-08T09:23:07.175Z,2.03
2023-01-08T09:25:35.344Z,1.83
2023-01-08T09:28:08.072Z,1.58
2023-01-08T09:30:36.473Z,1.63
2023-01-08T09:33:05.594Z,1.10
2023-01-08T09:35:34.734Z,1.60
2023-01-08T09:38:02.878Z,1.60
2023-01-08T09:40:36.584Z,1.60
2023-01-08T09:43:07.265Z,1.58
2023-01-08T09:45:40.496Z,2.00
2023-01-08T09:48:15.121Z,1.60
2023-01-08T09:50:43.245Z,2.15
2023-01-08T09:53:15.814Z,3.20
2023-01-08T09:55:44.848Z,1.48
2023-01-08T09:58:24.907Z,1.10
2023-01-08T10:00:54.288Z,1.10
2023-01-08T10:03:30.431Z,1.75
2023-01-08T10:05:58.688Z,1.77
2023-01-08T10:08:26.983Z,1.48
2023-01-08T10:10:55.163Z,1.45
2023-01-08T10:13:24.690Z,1.15
2023-01-08T10:15:53.048Z,1.65
2023-01-08T10:18:24.863Z,1.23
2023-01-08T10:20:54.682Z,1.17
2023-01-08T10:23:24.143Z,1.08
2023-01-08T10:25:55.212Z,1.42
2023-01-08T10:28:26.586Z,1.42
2023-01-08T10:30:59.602Z,1.30
2023-01-08T10:33:32.177Z,0.95
2023-01-08T10:36:03.329Z,0.80
2023-01-08T10:38:34.119Z,1.05
2023-01-08T10:41:05.100Z,1.45
2023-01-08T10:43:37.543Z,1.23
2023-01-08T10:46:08.949Z,1.20
2023-01-08T10:48:40.711Z,1.00
2023-01-08T10:51:15.878Z,1.52
2023-01-08T10:53:44.306Z,1.38
2023-01-08T10:56:21.105Z,1.52
2023-01-08T10:58:51.299Z,1.23
2023-01-08T11:01:23.753Z,1.30
2023-01-08T11:03:53.926Z,1.33
2023-01-08T11:06:24.477Z,1.30
2023-01-08T11:08:54.805Z,1.47
2023-01-08T11:11:23.933Z,1.50
2023-01-08T11:13:59.859Z,1.67
2023-01-08T11:16:37.012Z,1.02
2023-01-08T11:19:06.589Z,1.33
2023-01-08T11:21:36.738Z,1.70
2023-01-08T11:24:19.923Z,2.03
2023-01-08T11:26:52.535Z,1.70
2023-01-08T11:29:26.039Z,1.33
2023-01-08T11:32:04.698Z,1.60
2023-01-08T11:34:38.617Z,2.53
2023-01-08T11:37:15.166Z,1.38
2023-01-08T11:39:43.418Z,1.75
2023-01-08T11:42:28.703Z,2.28
2023-01-08T11:45:12.129Z,2.22
2023-01-08T11:47:58.046Z,2.17
2023-01-08T11:50:30.370Z,2.03
2023-01-08T11:53:16.272Z,2.08
2023-01-08T11:55:59.291Z,1.75
2023-01-08T11:58:42.407Z,1.95
2023-01-08T12:01:33.101Z,3.35
2023-01-08T12:04:19.520Z,1.95
2023-01-08T12:06:56.951Z,1.90
2023-01-08T12:09:37.383Z,3.00
2023-01-08T12:12:18.162Z,1.55
2023-01-08T12:14:56.979Z,1.60
2023-01-08T12:17:45.222Z,1.83
2023-01-08T12:20:22.444Z,1.58
2023-01-08T12:23:00.365Z,1.67
2023-01-08T12:25:53.638Z,2.35
2023-01-08T12:28:47.356Z,1.40
2023-01-08T12:31:38.685Z,2.90
2023-01-08T12:34:13.509Z,3.28
2023-01-08T12:36:46.799Z,1.38
2023-01-08T12:39:23.370Z,1.58
2023-01-08T12:41:55.947Z,1.42
2023-01-08T12:44:27.723Z,2.08
2023-01-08T12:46:58.522Z,2.33
2023-01-08T12:49:34.868Z,1.83
2023-01-08T12:52:07.728Z,1.27
2023-01-08T12:54:49.378Z,1.27
2023-01-08T12:59:55.896Z,3.85
2023-01-08T13:02:35.565Z,2.17
2023-01-08T13:05:15.913Z,2.38
2023-01-08T13:07:47.332Z,1.73
2023-01-08T13:12:55.221Z,1.90
2023-01-08T13:15:26.117Z,2.30
2023-01-08T13:17:56.974Z,2.42
2023-01-08T13:20:29.146Z,2.22
2023-01-08T13:23:00.195Z,2.13
2023-01-08T13:25:31.511Z,2.67
2023-01-08T13:27:59.981Z,2.10
2023-01-08T13:30:38.920Z,2.08
2023-01-08T13:33:31.456Z,2.13
2023-01-08T13:36:17.343Z,2.13
2023-01-08T13:38:46.220Z,1.70
2023-01-08T13:41:30.432Z,2.22
2023-01-08T13:44:02.594Z,2.10
2023-01-08T13:46:31.518Z,1.80
2023-01-08T13:49:03.683Z,2.47
2023-01-08T13:51:41.754Z,2.17
2023-01-08T13:54:35.940Z,1.67
2023-01-08T13:57:08.243Z,1.88
2023-01-08T13:59:40.637Z,1.45
2023-01-08T14:02:29.981Z,2.10
2023-01-08T14:05:01.476Z,1.45
2023-01-08T14:07:31.018Z,1.50
2023-01-08T14:10:11.652Z,2.08
2023-01-08T14:12:40.802Z,3.10
2023-01-08T14:15:11.690Z,1.85
2023-01-08T14:17:39.964Z,2.05
2023-01-08T14:20:12.142Z,2.28
2023-01-08T14:22:43.537Z,1.98
2023-01-08T14:25:18.269Z,2.55
2023-01-08T14:27:57.317Z,1.83
2023-01-08T14:30:26.347Z,2.53
2023-01-08T14:32:56.060Z,5.65
2023-01-08T14:35:31.531Z,2.70
2023-01-08T14:38:02.247Z,3.33
2023-01-08T14:40:34.101Z,2.30
2023-01-08T14:43:10.995Z,1.38
2023-01-08T14:45:41.199Z,2.67
2023-01-08T14:48:18.851Z,1.35
2023-01-08T14:51:01.803Z,2.00
2023-01-08T14:53:35.401Z,1.60
2023-01-08T14:56:05.747Z,1.77
2023-01-08T14:58:38.755Z,1.73
2023-01-08T15:01:10.130Z,3.30
2023-01-08T15:06:11.535Z,2.20
2023-01-08T15:08:42.637Z,1.85
2023-01-08T15:11:23.047Z,2.30
2023-01-08T15:13:53.197Z,1.30
2023-01-08T15:16:29.582Z,1.60
2023-01-08T15:19:04.023Z,2.50
2023-01-08T15:21:32.945Z,1.80
2023-01-08T15:24:04.172Z,2.22
2023-01-08T15:26:33.012Z,2.05
2023-01-08T15:29:03.117Z,1.85
2023-01-08T15:31:33.769Z,1.90
2023-01-08T15:34:02.403Z,2.10
2023-01-08T15:36:30.602Z,2.85
2023-01-08T15:38:58.724Z,2.00
2023-01-08T15:41:53.146Z,2.65
2023-01-08T15:44:21.640Z,2.58
2023-01-08T15:46:49.963Z,1.95
2023-01-08T15:49:18.151Z,2.38
2023-01-08T15:51:49.632Z,2.65
2023-01-08T15:54:18.131Z,2.40
2023-01-08T15:56:47.731Z,2.42
2023-01-08T15:59:15.865Z,2.38
2023-01-08T16:01:44.122Z,2.83
2023-01-08T16:04:12.352Z,2.30
2023-01-08T16:06:41.876Z,2.45
2023-01-08T16:09:10.072Z,3.95
2023-01-08T16:11:38.203Z,2.53
2023-01-08T16:14:07.889Z,3.15
2023-01-08T16:16:35.989Z,2.38
2023-01-08T16:19:04.197Z,3.10
2023-01-08T16:21:32.368Z,2.45
2023-01-08T16:24:00.643Z,2.38
2023-01-08T16:26:28.861Z,2.50
2023-01-08T16:28:57.036Z,2.30
2023-01-08T16:31:26.627Z,2.67
2023-01-08T16:33:54.754Z,2.78
2023-01-08T16:36:22.983Z,2.95
2023-01-08T16:38:51.273Z,2.45
2023-01-08T16:41:19.477Z,3.80
2023-01-08T16:43:47.636Z,3.60
2023-01-08T16:46:18.112Z,3.35
2023-01-08T16:48:48.613Z,3.93
2023-01-08T16:51:17.107Z,3.50
2023-01-08T16:53:45.369Z,2.58
2023-01-08T16:56:13.411Z,3.25
2023-01-08T16:58:41.529Z,2.30
2023-01-08T17:01:11.069Z,2.10
2023-01-08T17:03:39.654Z,2.55
2023-01-08T17:06:12.603Z,3.78
2023-01-08T17:08:42.406Z,11.57
2023-01-08T17:11:12.527Z,14.73
2023-01-08T17:13:41.402Z,6.80
2023-01-08T17:16:11.281Z,8.57
2023-01-08T17:18:39.936Z,5.95
2023-01-08T17:21:11.582Z,5.13
2023-01-08T17:23:40.582Z,5.25
2023-01-08T17:26:11.823Z,6.88
2023-01-08T17:28:40.008Z,5.18
2023-01-08T17:31:09.660Z,6.35
2023-01-08T17:33:38.604Z,4.20
2023-01-08T17:36:16.073Z,6.32
2023-01-08T17:38:44.325Z,6.22
2023-01-08T17:41:32.534Z,4.95
2023-01-08T17:44:00.919Z,7.97
2023-01-08T17:46:29.466Z,5.85
2023-01-08T17:48:57.628Z,5.40
2023-01-08T17:51:27.121Z,2.83
2023-01-08T17:53:57.064Z,5.25
2023-01-08T17:56:25.214Z,4.00
2023-01-08T17:58:53.519Z,6.30
2023-01-08T18:01:21.735Z,4.80
2023-01-08T18:03:50.554Z,3.85
2023-01-08T18:06:18.881Z,2.83
2023-01-08T18:08:48.530Z,8.40
2023-01-08T18:11:16.805Z,4.57
2023-01-08T18:13:45.017Z,5.05
2023-01-08T18:16:15.765Z,6.32
2023-01-08T18:18:43.924Z,5.10
2023-01-08T18:21:12.188Z,2.65
2023-01-08T18:23:40.243Z,5.25
2023-01-08T18:26:12.659Z,2.42
2023-01-08T18:28:41.143Z,2.70
2023-01-08T18:31:11.139Z,2.88
2023-01-08T18:33:40.215Z,3.60
2023-01-08T18:36:10.549Z,2.58
2023-01-08T18:38:39.886Z,3.20
2023-01-08T18:41:11.219Z,3.63
2023-01-08T18:46:09.103Z,2.97
2023-01-08T18:48:37.297Z,3.20
2023-01-08T18:51:07.637Z,2.65
2023-01-08T18:53:36.210Z,1.95
2023-01-08T18:56:04.341Z,2.33
2023-01-08T18:58:34.004Z,3.35
2023-01-08T19:01:05.024Z,3.25
2023-01-08T19:03:33.509Z,2.50
2023-01-08T19:06:01.741Z,2.80
2023-01-08T19:08:30.128Z,2.83
2023-01-08T19:10:58.282Z,2.88
2023-01-08T19:13:26.515Z,2.45
2023-01-08T19:15:56.028Z,3.10
2023-01-08T19:18:24.259Z,4.25
2023-01-08T19:20:52.642Z,3.72
2023-01-08T19:23:20.849Z,2.97
2023-01-08T19:25:49.237Z,3.40
2023-01-08T19:28:17.646Z,2.70
2023-01-08T19:30:45.843Z,4.13
2023-01-08T19:33:16.681Z,3.22
2023-01-08T19:35:44.772Z,2.80
2023-01-08T19:38:12.909Z,2.10
2023-01-08T19:40:41.024Z,2.80
2023-01-08T19:43:27.719Z,3.17
2023-01-08T19:45:55.972Z,2.55
2023-01-08T19:48:25.830Z,2.50
2023-01-08T19:50:54.167Z,3.08
2023-01-08T19:53:23.025Z,2.45
2023-01-08T19:55:51.171Z,1.90
2023-01-08T19:58:20.543Z,2.40
2023-01-08T20:00:48.759Z,3.17
2023-01-08T20:03:19.794Z,3.20
2023-01-08T20:05:49.272Z,2.90
2023-01-08T20:08:17.507Z,2.53
2023-01-08T20:10:45.666Z,3.40
2023-01-08T20:13:14.408Z,3.42
2023-01-08T20:15:42.637Z,2.65
2023-01-08T20:18:10.885Z,2.70
2023-01-08T20:20:39.060Z,2.72
2023-01-08T20:23:11.489Z,3.15
2023-01-08T20:25:39.714Z,2.28
2023-01-08T20:28:07.839Z,2.60
2023-01-08T20:30:36.072Z,3.03
2023-01-08T20:33:04.446Z,2.65
2023-01-08T20:35:32.713Z,2.72
2023-01-08T20:38:00.957Z,3.13
2023-01-08T20:40:30.559Z,2.80
2023-01-08T20:42:59.183Z,2.70
2023-01-08T20:45:27.592Z,2.50
2023-01-08T20:47:55.813Z,4.53
2023-01-08T20:50:24.047Z,2.90
2023-01-08T20:52:52.285Z,2.60
2023-01-08T20:55:22.032Z,3.30
2023-01-08T20:57:51.488Z,2.80
2023-01-08T21:00:22.029Z,2.35
2023-01-08T21:02:50.199Z,2.95
2023-01-08T21:05:18.452Z,2.20
2023-01-08T21:07:46.675Z,3.45
2023-01-08T21:10:14.831Z,3.13
2023-01-08T21:12:43.409Z,2.15
2023-01-08T21:15:13.398Z,2.60
2023-01-08T21:17:41.539Z,3.40
2023-01-08T21:20:11.306Z,2.90
2023-01-08T21:22:39.373Z,2.72
2023-01-08T21:25:08.633Z,3.83
2023-01-08T21:27:36.993Z,3.53
2023-01-08T21:30:06.354Z,2.28
2023-01-08T21:32:37.576Z,2.28
2023-01-08T21:35:06.364Z,2.55
2023-01-08T21:37:34.539Z,2.78
2023-01-08T21:40:02.653Z,3.00
2023-01-08T21:42:48.264Z,2.38
2023-01-08T21:45:29.780Z,2.40
2023-01-08T21:50:27.800Z,3.00
2023-01-08T21:53:13.440Z,2.92
2023-01-08T21:55:42.281Z,2.40
2023-01-08T21:58:10.719Z,3.00
2023-01-08T22:00:39.754Z,2.22
2023-01-08T22:03:09.522Z,2.88
2023-01-08T22:05:37.740Z,2.45
2023-01-08T22:08:07.014Z,2.63
2023-01-08T22:10:35.307Z,2.42
2023-01-08T22:13:03.593Z,2.40
2023-01-08T22:15:31.697Z,2.70
2023-01-08T22:17:59.818Z,2.42
2023-01-08T22:20:29.421Z,2.50
2023-01-08T22:22:57.564Z,3.38
2023-01-08T22:25:25.666Z,2.13
2023-01-08T22:27:54.728Z,2.78
2023-01-08T22:30:23.210Z,1.98
2023-01-08T22:32:51.366Z,2.65
2023-01-08T22:35:19.626Z,2.50
2023-01-08T22:37:49.638Z,3.38
2023-01-08T22:40:18.276Z,2.42
2023-01-08T22:42:46.507Z,2.42
2023-01-08T22:45:14.975Z,2.03
2023-01-08T22:47:43.119Z,2.30
2023-01-08T22:50:12.264Z,1.92
2023-01-08T22:52:40.466Z,2.10
2023-01-08T22:55:10.839Z,2.47
2023-01-08T22:57:38.933Z,1.85
2023-01-08T23:00:10.055Z,2.13
2023-01-08T23:02:38.708Z,2.03
2023-01-08T23:05:07.463Z,2.08
2023-01-08T23:07:35.598Z,2.13
2023-01-08T23:10:03.936Z,2.03
2023-01-08T23:12:34.560Z,2.63
2023-01-08T23:15:04.491Z,2.27
2023-01-08T23:17:38.942Z,2.30
2023-01-08T23:20:13.431Z,2.13
2023-01-08T23:22:41.907Z,2.33
2023-01-08T23:25:10.958Z,3.35
2023-01-08T23:27:40.532Z,2.30
2023-01-08T23:30:09.932Z,2.33
2023-01-08T23:32:38.115Z,2.00
2023-01-08T23:35:06.997Z,2.15
2023-01-08T23:37:35.544Z,1.63
2023-01-08T23:40:03.730Z,2.72
2023-01-08T23:42:31.799Z,2.85
2023-01-08T23:45:01.649Z,2.35
2023-01-08T23:47:29.810Z,1.90
2023-01-08T23:49:58.033Z,3.80
2023-01-08T23:52:26.374Z,1.75
2023-01-08T23:54:54.597Z,3.47
2023-01-08T23:57:22.753Z,2.20
2023-01-08T23:59:50.982Z,1.73
